Wednesday, June 20, 2018, 6:27 PM EDT
Back to Local

KPEO, Penn Yan Airport

Location: Penn Yan, NY, United States Lat: 42.65
Local Time: 6:27 PM EDT (22:27 GMT) Lon: -77.05
Time Zone: US/Eastern Elev: 977 ft

Show me the last for .
Show Decoded

2018-06-20 17:53 METAR KPEO 202153Z AUTO 19004KT 10SM CLR 22/13 A2984 RMK AO2 SLP099 T02220128 =
2018-06-20 16:53 METAR KPEO 202053Z AUTO 21005KT 10SM CLR 22/13 A2985 RMK AO2 SLP103 T02220128
                 58008 =
2018-06-20 15:53 METAR KPEO 201953Z AUTO 10SM CLR 23/12 A2985 RMK AO2 SLP104 T02280122 =
2018-06-20 14:53 METAR KPEO 201853Z AUTO 22005KT 10SM FEW110 23/12 A2988 RMK AO2 SLP112 T02280117
                 =
2018-06-20 13:53 METAR KPEO 201753Z AUTO 25004KT 10SM BKN110 22/12 A2987 RMK AO2 SLP110 T02170117
                 10217 20161 58013 =
2018-06-20 12:53 METAR KPEO 201653Z AUTO 30003KT 10SM CLR 22/12 A2989 RMK AO2 SLP118 T02170117 =
2018-06-20 11:53 METAR KPEO 201553Z AUTO 00000KT 10SM CLR 21/12 A2991 RMK AO2 SLP125 T02110117 =
2018-06-20 10:53 METAR KPEO 201453Z AUTO 25005KT 10SM CLR 20/12 A2991 RMK AO2 SLP124 T02000117
                 56016 =
2018-06-20 09:53 METAR KPEO 201353Z AUTO 29003KT 10SM CLR 18/13 A2993 RMK AO2 SLP130 T01830128 =
2018-06-20 08:53 METAR KPEO 201253Z AUTO 20004KT 10SM SCT110 17/12 A2994 RMK AO2 SLP135 T01720122
                 =
2018-06-20 07:53 METAR KPEO 201153Z AUTO 22004KT 10SM CLR 16/13 A2996 RMK AO2 SLP141 T01610128
                 10161 20122 51006 =
2018-06-20 06:53 METAR KPEO 201053Z AUTO 21003KT 10SM CLR 16/12 A2995 RMK AO2 SLP139 T01560122 =
2018-06-20 05:53 METAR KPEO 200953Z AUTO 24003KT 10SM CLR 14/12 A2995 RMK AO2 SLP138 T01440122 =
2018-06-20 04:53 METAR KPEO 200853Z AUTO 24003KT 10SM CLR 13/11 A2994 RMK AO2 SLP135 T01280111
                 55005 =
2018-06-20 03:53 METAR KPEO 200753Z AUTO 00000KT 10SM CLR 14/12 A2994 RMK AO2 SLP133 T01440117 =
2018-06-20 02:53 METAR KPEO 200653Z AUTO 22004KT 10SM CLR 16/12 A2995 RMK AO2 SLP136 T01610117 =
2018-06-20 01:53 METAR KPEO 200553Z AUTO 00000KT 10SM CLR 16/12 A2996 RMK AO2 SLP140 T01610117
                 10200 20156 58006 =
2018-06-20 00:53 METAR KPEO 200453Z AUTO 21003KT 10SM CLR 16/11 A2997 RMK AO2 SLP144 T01560111
                 402330156 =
2018-06-19 23:53 METAR KPEO 200353Z AUTO 00000KT 10SM CLR 17/11 A2998 RMK AO2 SLP146 T01720111 =
2018-06-19 22:53 METAR KPEO 200253Z AUTO 22003KT 10SM CLR 18/11 A2998 RMK AO2 SLP147 T01780106
                 53001 =
2018-06-19 21:53 METAR KPEO 200153Z AUTO 00000KT 10SM CLR 17/09 A2997 RMK AO2 SLP145 T01720094 =
2018-06-19 20:53 METAR KPEO 200053Z AUTO 00000KT 10SM CLR 18/09 A2997 RMK AO2 SLP145 T01780089 =
2018-06-19 19:53 METAR KPEO 192353Z AUTO 00000KT 10SM CLR 20/07 A2997 RMK AO2 SLP145 T02000067
                 10233 20200 56001 =
2018-06-19 18:53 METAR KPEO 192253Z AUTO VRB04KT 10SM CLR 21/08 A2997 RMK AO2 SLP145 T02110078 =

Support USWX by starting your Amazon purchase here.